Herk-de-Stad, Belgium
Current Conditions -  °F | °C
As of 5:25 AM on Saturday 25 Oct 2014 (Local Time) from EBDT Reporting Station
Overcast Overcast  
Wind Chill: 12°   Ceiling: 600
Heat Index: 12°   Visibility: 3mi
Dew Point: 11°   Wind: 6mph
Humidity: 94%   Direction: 200°SSW
Pressure: 30.03"   Gusts: NA
Location:  50.94°N, 5.17°E
Report Text: EBDT 250325Z AUTO 20005KT 5000 SCT004/// OVC006/// 12/11 Q1017 YLO
Loading
Personal Weather Stations






























Interactive Weather Map
Tropical Storm Tracking
New forecast layout! Learn more

10-Day Weather Forecast

Advertisements
Track Severe Weather on mobile